sensor_id;sensor_type;location;lat;lon;timestamp;pressure;altitude;pressure_sealevel;temperature;humidity
31092;BME280;67728;53.122;12.776;2023-02-28T00:00:49;102314.41;;;-4.35;83.91
31092;BME280;67728;53.122;12.776;2023-02-28T00:02:21;102318.94;;;-4.42;83.64
31092;BME280;67728;53.122;12.776;2023-02-28T00:03:52;102313.13;;;-4.53;84.29
31092;BME280;67728;53.122;12.776;2023-02-28T00:05:26;102317.22;;;-4.55;84.28
31092;BME280;67728;53.122;12.776;2023-02-28T00:06:58;102314.09;;;-4.51;83.59
31092;BME280;67728;53.122;12.776;2023-02-28T00:08:29;102312.59;;;-4.49;83.70
31092;BME280;67728;53.122;12.776;2023-02-28T00:10:02;102309.63;;;-4.55;84.78
31092;BME280;67728;53.122;12.776;2023-02-28T00:11:34;102309.09;;;-4.62;84.58
31092;BME280;67728;53.122;12.776;2023-02-28T00:13:08;102309.72;;;-4.65;85.37
31092;BME280;67728;53.122;12.776;2023-02-28T00:14:39;102321.16;;;-4.58;84.37
31092;BME280;67728;53.122;12.776;2023-02-28T00:16:14;102317.66;;;-4.60;84.84
31092;BME280;67728;53.122;12.776;2023-02-28T00:17:46;102315.81;;;-4.63;84.11
31092;BME280;67728;53.122;12.776;2023-02-28T00:19:17;102315.22;;;-4.59;83.96
31092;BME280;67728;53.122;12.776;2023-02-28T00:20:49;102314.47;;;-4.58;84.24
31092;BME280;67728;53.122;12.776;2023-02-28T00:22:21;102307.09;;;-4.55;85.14
31092;BME280;67728;53.122;12.776;2023-02-28T00:23:53;102312.03;;;-4.56;84.07
31092;BME280;67728;53.122;12.776;2023-02-28T00:25:25;102310.59;;;-4.53;85.79
31092;BME280;67728;53.122;12.776;2023-02-28T00:26:56;102311.94;;;-4.46;84.98
31092;BME280;67728;53.122;12.776;2023-02-28T00:28:27;102320.81;;;-4.51;85.12
31092;BME280;67728;53.122;12.776;2023-02-28T00:29:59;102313.66;;;-4.45;85.80
31092;BME280;67728;53.122;12.776;2023-02-28T00:31:31;102313.03;;;-4.54;83.32
31092;BME280;67728;53.122;12.776;2023-02-28T00:33:02;102315.88;;;-4.61;84.36
31092;BME280;67728;53.122;12.776;2023-02-28T00:34:33;102310.59;;;-4.64;84.46
31092;BME280;67728;53.122;12.776;2023-02-28T00:36:10;102312.38;;;-4.75;83.45
31092;BME280;67728;53.122;12.776;2023-02-28T00:37:42;102305.69;;;-4.74;84.21
31092;BME280;67728;53.122;12.776;2023-02-28T00:39:13;102309.75;;;-4.76;84.24
31092;BME280;67728;53.122;12.776;2023-02-28T00:40:44;102310.66;;;-4.76;84.27
31092;BME280;67728;53.122;12.776;2023-02-28T00:42:16;102308.44;;;-4.71;84.65
31092;BME280;67728;53.122;12.776;2023-02-28T00:43:47;102314.56;;;-4.56;83.40
31092;BME280;67728;53.122;12.776;2023-02-28T00:45:20;102313.69;;;-4.57;84.00
31092;BME280;67728;53.122;12.776;2023-02-28T00:46:52;102318.09;;;-4.66;83.96
31092;BME280;67728;53.122;12.776;2023-02-28T00:48:24;102303.16;;;-4.74;84.13
31092;BME280;67728;53.122;12.776;2023-02-28T00:49:56;102311.94;;;-4.81;84.71
31092;BME280;67728;53.122;12.776;2023-02-28T00:51:27;102314.47;;;-4.81;84.69
31092;BME280;67728;53.122;12.776;2023-02-28T00:52:59;102319.00;;;-4.77;85.25
31092;BME280;67728;53.122;12.776;2023-02-28T00:54:29;102313.72;;;-4.68;85.73
31092;BME280;67728;53.122;12.776;2023-02-28T00:56:01;102313.25;;;-4.63;83.84
31092;BME280;67728;53.122;12.776;2023-02-28T00:57:32;102313.25;;;-4.63;84.92
31092;BME280;67728;53.122;12.776;2023-02-28T00:59:03;102315.66;;;-4.53;83.87
31092;BME280;67728;53.122;12.776;2023-02-28T01:00:35;102317.75;;;-4.59;83.25
31092;BME280;67728;53.122;12.776;2023-02-28T01:02:08;102311.81;;;-4.59;83.71
31092;BME280;67728;53.122;12.776;2023-02-28T01:03:39;102320.84;;;-4.74;84.46
31092;BME280;67728;53.122;12.776;2023-02-28T01:05:12;102318.22;;;-4.76;84.16
31092;BME280;67728;53.122;12.776;2023-02-28T01:06:44;102314.59;;;-4.68;84.63
31092;BME280;67728;53.122;12.776;2023-02-28T01:08:17;102315.81;;;-4.63;84.38
31092;BME280;67728;53.122;12.776;2023-02-28T01:09:49;102317.88;;;-4.69;84.23
31092;BME280;67728;53.122;12.776;2023-02-28T01:11:20;102318.22;;;-4.76;83.85
31092;BME280;67728;53.122;12.776;2023-02-28T01:12:52;102317.88;;;-4.80;85.23
31092;BME280;67728;53.122;12.776;2023-02-28T01:14:24;102323.81;;;-4.80;84.81
31092;BME280;67728;53.122;12.776;2023-02-28T01:15:55;102316.59;;;-4.87;85.57
31092;BME280;67728;53.122;12.776;2023-02-28T01:17:28;102326.69;;;-4.87;85.26
31092;BME280;67728;53.122;12.776;2023-02-28T01:18:59;102320.75;;;-4.88;86.46
31092;BME280;67728;53.122;12.776;2023-02-28T01:20:30;102328.03;;;-4.92;85.67
31092;BME280;67728;53.122;12.776;2023-02-28T01:22:02;102325.50;;;-4.92;86.38
31092;BME280;67728;53.122;12.776;2023-02-28T01:23:34;102322.63;;;-4.97;84.99
31092;BME280;67728;53.122;12.776;2023-02-28T01:25:07;102322.19;;;-4.79;86.29
31092;BME280;67728;53.122;12.776;2023-02-28T01:26:39;102320.50;;;-4.67;86.09
31092;BME280;67728;53.122;12.776;2023-02-28T01:28:10;102332.06;;;-4.59;85.55
31092;BME280;67728;53.122;12.776;2023-02-28T01:29:42;102329.00;;;-4.67;85.63
31092;BME280;67728;53.122;12.776;2023-02-28T01:31:14;102329.44;;;-4.61;85.02
31092;BME280;67728;53.122;12.776;2023-02-28T01:32:47;102332.97;;;-4.82;83.29
31092;BME280;67728;53.122;12.776;2023-02-28T01:34:18;102324.47;;;-4.94;84.35
31092;BME280;67728;53.122;12.776;2023-02-28T01:35:57;102329.00;;;-5.02;83.56
31092;BME280;67728;53.122;12.776;2023-02-28T01:37:28;102322.63;;;-4.97;83.87
31092;BME280;67728;53.122;12.776;2023-02-28T01:38:59;102326.69;;;-4.99;85.11
31092;BME280;67728;53.122;12.776;2023-02-28T01:40:31;102336.34;;;-5.05;84.74
31092;BME280;67728;53.122;12.776;2023-02-28T01:42:02;102330.41;;;-5.05;84.03
31092;BME280;67728;53.122;12.776;2023-02-28T01:43:57;102334.19;;;-5.00;84.32
31092;BME280;67728;53.122;12.776;2023-02-28T01:45:30;102332.63;;;-4.98;83.71
31092;BME280;67728;53.122;12.776;2023-02-28T01:47:02;102332.44;;;-4.90;84.15
31092;BME280;67728;53.122;12.776;2023-02-28T01:48:37;102328.44;;;-5.09;83.55
31092;BME280;67728;53.122;12.776;2023-02-28T01:50:13;102331.59;;;-5.23;85.00
31092;BME280;67728;53.122;12.776;2023-02-28T01:51:48;102319.97;;;-5.10;84.70
31092;BME280;67728;53.122;12.776;2023-02-28T01:53:24;102328.00;;;-5.15;84.13
31092;BME280;67728;53.122;12.776;2023-02-28T01:54:59;102330.44;;;-5.17;84.85
31092;BME280;67728;53.122;12.776;2023-02-28T01:56:34;102336.25;;;-5.06;85.67
31092;BME280;67728;53.122;12.776;2023-02-28T01:58:07;102336.72;;;-5.00;85.09
31092;BME280;67728;53.122;12.776;2023-02-28T01:59:43;102325.56;;;-5.02;85.00
31092;BME280;67728;53.122;12.776;2023-02-28T02:01:16;102330.97;;;-5.09;85.30
31092;BME280;67728;53.122;12.776;2023-02-28T02:02:54;102328.03;;;-4.92;85.33
31092;BME280;67728;53.122;12.776;2023-02-28T02:04:34;102333.84;;;-4.93;84.10
31092;BME280;67728;53.122;12.776;2023-02-28T02:06:08;102336.94;;;-5.09;84.99
31092;BME280;67728;53.122;12.776;2023-02-28T02:07:42;102328.22;;;-5.12;84.58
31092;BME280;67728;53.122;12.776;2023-02-28T02:09:14;102325.47;;;-5.15;85.00
31092;BME280;67728;53.122;12.776;2023-02-28T02:10:48;102325.13;;;-5.20;84.84
31092;BME280;67728;53.122;12.776;2023-02-28T02:12:39;102323.94;;;-5.25;84.28
31092;BME280;67728;53.122;12.776;2023-02-28T02:14:36;102320.75;;;-5.22;84.21
31092;BME280;67728;53.122;12.776;2023-02-28T02:16:22;102318.09;;;-5.24;85.34
31092;BME280;67728;53.122;12.776;2023-02-28T02:18:04;102325.66;;;-5.35;83.72
31092;BME280;67728;53.122;12.776;2023-02-28T02:20:22;102321.84;;;-5.30;84.45
31092;BME280;67728;53.122;12.776;2023-02-28T02:22:13;102329.47;;;-5.40;83.38
31092;BME280;67728;53.122;12.776;2023-02-28T02:24:24;102322.34;;;-5.34;84.07
31092;BME280;67728;53.122;12.776;2023-02-28T02:26:15;102327.13;;;-5.27;85.35
31092;BME280;67728;53.122;12.776;2023-02-28T02:28:36;102317.19;;;-5.24;85.73
31092;BME280;67728;53.122;12.776;2023-02-28T02:30:37;102317.44;;;-5.33;85.04
31092;BME280;67728;53.122;12.776;2023-02-28T02:32:27;102310.59;;;-5.34;84.77
31092;BME280;67728;53.122;12.776;2023-02-28T02:34:37;102307.09;;;-5.36;84.01
31092;BME280;67728;53.122;12.776;2023-02-28T02:36:13;102309.03;;;-5.55;84.75
31092;BME280;67728;53.122;12.776;2023-02-28T02:37:50;102313.44;;;-5.53;84.53
31092;BME280;67728;53.122;12.776;2023-02-28T02:39:30;102320.44;;;-5.49;85.30
31092;BME280;67728;53.122;12.776;2023-02-28T02:41:08;102310.81;;;-5.43;85.12
31092;BME280;67728;53.122;12.776;2023-02-28T02:42:49;102312.75;;;-5.50;84.14
31092;BME280;67728;53.122;12.776;2023-02-28T02:44:24;102313.66;;;-5.50;84.62
31092;BME280;67728;53.122;12.776;2023-02-28T02:46:02;102315.41;;;-5.49;84.91
31092;BME280;67728;53.122;12.776;2023-02-28T02:47:37;102313.28;;;-5.54;84.69
31092;BME280;67728;53.122;12.776;2023-02-28T02:49:13;102303.75;;;-5.58;84.69
31092;BME280;67728;53.122;12.776;2023-02-28T02:50:50;102312.22;;;-5.58;84.89
31092;BME280;67728;53.122;12.776;2023-02-28T02:52:27;102313.44;;;-5.53;84.97
31092;BME280;67728;53.122;12.776;2023-02-28T02:54:04;102318.00;;;-5.59;85.24
31092;BME280;67728;53.122;12.776;2023-02-28T02:55:41;102321.25;;;-5.50;85.21
31092;BME280;67728;53.122;12.776;2023-02-28T02:57:19;102319.94;;;-5.45;84.93
31092;BME280;67728;53.122;12.776;2023-02-28T02:58:55;102324.56;;;-5.39;84.70
31092;BME280;67728;53.122;12.776;2023-02-28T03:00:32;102324.53;;;-5.51;83.90
31092;BME280;67728;53.122;12.776;2023-02-28T03:02:08;102327.03;;;-5.51;84.97
31092;BME280;67728;53.122;12.776;2023-02-28T03:03:43;102324.06;;;-5.57;84.82
31092;BME280;67728;53.122;12.776;2023-02-28T03:05:19;102318.25;;;-5.56;84.89
31092;BME280;67728;53.122;12.776;2023-02-28T03:06:53;102324.84;;;-5.58;84.34
31092;BME280;67728;53.122;12.776;2023-02-28T03:08:26;102331.22;;;-5.51;84.49
31092;BME280;67728;53.122;12.776;2023-02-28T03:09:58;102321.91;;;-5.40;84.77
31092;BME280;67728;53.122;12.776;2023-02-28T03:11:30;102325.63;;;-5.47;84.26
31092;BME280;67728;53.122;12.776;2023-02-28T03:15:19;102325.88;;;-5.44;85.52
31092;BME280;67728;53.122;12.776;2023-02-28T03:17:07;102332.09;;;-5.51;84.83
31092;BME280;67728;53.122;12.776;2023-02-28T03:18:52;102328.81;;;-5.50;84.60
31092;BME280;67728;53.122;12.776;2023-02-28T03:20:35;102328.16;;;-5.47;83.93
31092;BME280;67728;53.122;12.776;2023-02-28T03:22:23;102332.19;;;-5.61;84.00
31092;BME280;67728;53.122;12.776;2023-02-28T03:24:04;102336.03;;;-5.66;84.97
31092;BME280;67728;53.122;12.776;2023-02-28T03:25:42;102329.66;;;-5.61;85.21
31092;BME280;67728;53.122;12.776;2023-02-28T03:27:22;102336.16;;;-5.53;85.19
31092;BME280;67728;53.122;12.776;2023-02-28T03:29:02;102330.09;;;-5.66;84.33
31092;BME280;67728;53.122;12.776;2023-02-28T03:30:41;102333.13;;;-5.70;84.27
31092;BME280;67728;53.122;12.776;2023-02-28T03:32:16;102333.66;;;-5.86;83.96
31092;BME280;67728;53.122;12.776;2023-02-28T03:33:57;102334.00;;;-5.81;84.28
31092;BME280;67728;53.122;12.776;2023-02-28T03:35:32;102334.84;;;-5.81;84.76
31092;BME280;67728;53.122;12.776;2023-02-28T03:37:10;102325.41;;;-5.83;84.47
31092;BME280;67728;53.122;12.776;2023-02-28T03:38:49;102339.06;;;-5.81;84.37
31092;BME280;67728;53.122;12.776;2023-02-28T03:40:25;102328.28;;;-5.79;84.01
31092;BME280;67728;53.122;12.776;2023-02-28T03:42:01;102323.47;;;-5.76;84.79
31092;BME280;67728;53.122;12.776;2023-02-28T03:43:36;102321.69;;;-5.77;84.55
31092;BME280;67728;53.122;12.776;2023-02-28T03:45:11;102321.69;;;-5.77;84.26
31092;BME280;67728;53.122;12.776;2023-02-28T03:46:49;102326.34;;;-5.71;84.74
31092;BME280;67728;53.122;12.776;2023-02-28T03:48:25;102328.31;;;-5.67;85.21
31092;BME280;67728;53.122;12.776;2023-02-28T03:50:02;102318.75;;;-5.71;84.60
31092;BME280;67728;53.122;12.776;2023-02-28T03:51:38;102325.59;;;-5.59;84.94
31092;BME280;67728;53.122;12.776;2023-02-28T03:53:13;102319.38;;;-5.52;84.07
31092;BME280;67728;53.122;12.776;2023-02-28T03:54:49;102319.09;;;-5.67;83.88
31092;BME280;67728;53.122;12.776;2023-02-28T03:56:27;102319.09;;;-5.67;83.50
31092;BME280;67728;53.122;12.776;2023-02-28T03:58:07;102320.16;;;-5.75;82.80
31092;BME280;67728;53.122;12.776;2023-02-28T03:59:43;102320.28;;;-5.85;83.39
31092;BME280;67728;53.122;12.776;2023-02-28T04:01:20;102324.34;;;-5.87;84.21
31092;BME280;67728;53.122;12.776;2023-02-28T04:02:53;102330.81;;;-5.79;83.50
31092;BME280;67728;53.122;12.776;2023-02-28T04:04:25;102334.44;;;-5.87;83.79
31092;BME280;67728;53.122;12.776;2023-02-28T04:05:57;102330.16;;;-5.88;84.21
31092;BME280;67728;53.122;12.776;2023-02-28T04:07:29;102331.56;;;-5.91;83.72
31092;BME280;67728;53.122;12.776;2023-02-28T04:09:01;102320.03;;;-5.88;83.63
31092;BME280;67728;53.122;12.776;2023-02-28T04:10:34;102325.63;;;-5.80;83.89
31092;BME280;67728;53.122;12.776;2023-02-28T04:12:06;102320.28;;;-5.85;84.28
31092;BME280;67728;53.122;12.776;2023-02-28T04:13:38;102326.63;;;-5.90;84.44
31092;BME280;67728;53.122;12.776;2023-02-28T04:15:10;102324.34;;;-5.87;84.23
31092;BME280;67728;53.122;12.776;2023-02-28T04:16:42;102329.34;;;-5.98;84.15
31092;BME280;67728;53.122;12.776;2023-02-28T04:18:13;102335.50;;;-5.95;84.29
31092;BME280;67728;53.122;12.776;2023-02-28T04:19:45;102331.56;;;-5.91;83.78
31092;BME280;67728;53.122;12.776;2023-02-28T04:21:17;102333.19;;;-5.92;84.08
31092;BME280;67728;53.122;12.776;2023-02-28T04:22:51;102331.91;;;-5.75;84.15
31092;BME280;67728;53.122;12.776;2023-02-28T04:24:24;102331.16;;;-5.74;84.93
31092;BME280;67728;53.122;12.776;2023-02-28T04:25:58;102331.38;;;-5.71;84.94
31092;BME280;67728;53.122;12.776;2023-02-28T04:27:29;102329.75;;;-5.71;84.42
31092;BME280;67728;53.122;12.776;2023-02-28T04:29:02;102325.88;;;-5.77;84.12
31092;BME280;67728;53.122;12.776;2023-02-28T04:30:34;102324.97;;;-5.78;83.56
31092;BME280;67728;53.122;12.776;2023-02-28T04:32:06;102329.03;;;-5.80;83.80
31092;BME280;67728;53.122;12.776;2023-02-28T04:33:37;102325.19;;;-5.86;83.90
31092;BME280;67728;53.122;12.776;2023-02-28T04:35:09;102326.97;;;-5.85;84.30
31092;BME280;67728;53.122;12.776;2023-02-28T04:36:41;102323.91;;;-5.81;83.37
31092;BME280;67728;53.122;12.776;2023-02-28T04:38:12;102320.59;;;-5.80;84.50
31092;BME280;67728;53.122;12.776;2023-02-28T04:39:44;102320.28;;;-5.73;83.57
31092;BME280;67728;53.122;12.776;2023-02-28T04:41:18;102329.56;;;-5.84;83.63
31092;BME280;67728;53.122;12.776;2023-02-28T04:42:50;102332.44;;;-5.91;83.30
31092;BME280;67728;53.122;12.776;2023-02-28T04:44:21;102333.50;;;-5.99;83.40
31092;BME280;67728;53.122;12.776;2023-02-28T04:45:53;102333.84;;;-5.94;83.19
31092;BME280;67728;53.122;12.776;2023-02-28T04:47:26;102331.31;;;-5.94;83.40
31092;BME280;67728;53.122;12.776;2023-02-28T04:48:58;102332.97;;;-5.95;83.55
31092;BME280;67728;53.122;12.776;2023-02-28T04:50:30;102332.56;;;-5.89;83.93
31092;BME280;67728;53.122;12.776;2023-02-28T04:52:01;102332.19;;;-5.94;83.36
31092;BME280;67728;53.122;12.776;2023-02-28T04:53:33;102326.72;;;-5.88;83.62
31092;BME280;67728;53.122;12.776;2023-02-28T04:55:05;102336.34;;;-6.06;83.88
31092;BME280;67728;53.122;12.776;2023-02-28T04:56:39;102337.91;;;-5.96;84.16
31092;BME280;67728;53.122;12.776;2023-02-28T04:58:10;102339.91;;;-5.92;84.41
31092;BME280;67728;53.122;12.776;2023-02-28T04:59:41;102337.97;;;-5.85;83.47
31092;BME280;67728;53.122;12.776;2023-02-28T05:01:19;102336.09;;;-5.76;84.13
31092;BME280;67728;53.122;12.776;2023-02-28T05:02:50;102344.41;;;-5.88;83.47
31092;BME280;67728;53.122;12.776;2023-02-28T05:04:22;102339.44;;;-5.98;82.63
31092;BME280;67728;53.122;12.776;2023-02-28T05:05:54;102339.53;;;-5.97;83.91
31092;BME280;67728;53.122;12.776;2023-02-28T05:07:25;102337.00;;;-5.97;82.93
31092;BME280;67728;53.122;12.776;2023-02-28T05:08:56;102336.09;;;-5.87;83.11
31092;BME280;67728;53.122;12.776;2023-02-28T05:10:28;102336.50;;;-5.93;84.02
31092;BME280;67728;53.122;12.776;2023-02-28T05:12:01;102337.81;;;-5.86;84.46
31092;BME280;67728;53.122;12.776;2023-02-28T05:13:33;102341.03;;;-5.77;84.38
31092;BME280;67728;53.122;12.776;2023-02-28T05:15:05;102338.41;;;-5.79;83.58
31092;BME280;67728;53.122;12.776;2023-02-28T05:16:37;102332.56;;;-5.78;84.17
31092;BME280;67728;53.122;12.776;2023-02-28T05:18:09;102342.13;;;-5.85;83.40
31092;BME280;67728;53.122;12.776;2023-02-28T05:19:40;102335.19;;;-5.88;83.85
31092;BME280;67728;53.122;12.776;2023-02-28T05:21:24;102336.63;;;-5.80;83.38
31092;BME280;67728;53.122;12.776;2023-02-28T05:22:56;102344.03;;;-5.71;83.36
31092;BME280;67728;53.122;12.776;2023-02-28T05:24:29;102340.38;;;-5.75;82.70
31092;BME280;67728;53.122;12.776;2023-02-28T05:26:01;102344.31;;;-5.90;82.75
31092;BME280;67728;53.122;12.776;2023-02-28T05:27:34;102348.34;;;-5.92;83.19
31092;BME280;67728;53.122;12.776;2023-02-28T05:29:06;102346.19;;;-6.09;82.48
31092;BME280;67728;53.122;12.776;2023-02-28T05:30:38;102348.78;;;-5.97;82.68
31092;BME280;67728;53.122;12.776;2023-02-28T05:32:10;102351.94;;;-6.00;83.10
31092;BME280;67728;53.122;12.776;2023-02-28T05:33:41;102346.59;;;-6.15;83.23
31092;BME280;67728;53.122;12.776;2023-02-28T05:35:12;102347.59;;;-6.13;84.00
31092;BME280;67728;53.122;12.776;2023-02-28T05:36:44;102346.47;;;-6.16;83.29
31092;BME280;67728;53.122;12.776;2023-02-28T05:38:15;102343.66;;;-6.09;83.58
31092;BME280;67728;53.122;12.776;2023-02-28T05:39:47;102348.78;;;-6.19;83.76
31092;BME280;67728;53.122;12.776;2023-02-28T05:41:19;102342.38;;;-6.26;83.09
31092;BME280;67728;53.122;12.776;2023-02-28T05:42:52;102343.91;;;-6.28;83.22
31092;BME280;67728;53.122;12.776;2023-02-28T05:44:24;102345.41;;;-6.30;82.99
31092;BME280;67728;53.122;12.776;2023-02-28T05:45:55;102340.84;;;-6.24;83.75
31092;BME280;67728;53.122;12.776;2023-02-28T05:47:28;102347.59;;;-6.13;83.64
31092;BME280;67728;53.122;12.776;2023-02-28T05:48:59;102351.41;;;-6.18;82.67
31092;BME280;67728;53.122;12.776;2023-02-28T05:50:31;102350.69;;;-6.27;83.48
31092;BME280;67728;53.122;12.776;2023-02-28T05:52:03;102349.84;;;-6.27;83.81
31092;BME280;67728;53.122;12.776;2023-02-28T05:53:35;102350.03;;;-6.24;83.45
31092;BME280;67728;53.122;12.776;2023-02-28T05:55:07;102347.00;;;-6.20;83.70
31092;BME280;67728;53.122;12.776;2023-02-28T05:56:39;102349.00;;;-6.16;83.79
31092;BME280;67728;53.122;12.776;2023-02-28T05:58:15;102344.41;;;-6.10;83.61
31092;BME280;67728;53.122;12.776;2023-02-28T05:59:47;102353.69;;;-5.99;83.02
31092;BME280;67728;53.122;12.776;2023-02-28T06:01:21;102354.81;;;-5.95;82.91
31092;BME280;67728;53.122;12.776;2023-02-28T06:02:53;102357.84;;;-6.11;82.36
31092;BME280;67728;53.122;12.776;2023-02-28T06:04:26;102350.13;;;-6.13;82.95
31092;BME280;67728;53.122;12.776;2023-02-28T06:05:58;102358.09;;;-6.18;83.10
31092;BME280;67728;53.122;12.776;2023-02-28T06:07:29;102353.59;;;-6.22;83.33
31092;BME280;67728;53.122;12.776;2023-02-28T06:09:02;102354.59;;;-6.20;83.73
31092;BME280;67728;53.122;12.776;2023-02-28T06:10:34;102355.56;;;-6.18;84.16
31092;BME280;67728;53.122;12.776;2023-02-28T06:12:06;102360.22;;;-6.13;83.28
31092;BME280;67728;53.122;12.776;2023-02-28T06:13:41;102358.28;;;-6.05;83.54
31092;BME280;67728;53.122;12.776;2023-02-28T06:15:15;102360.28;;;-6.01;83.56
31092;BME280;67728;53.122;12.776;2023-02-28T06:16:47;102363.63;;;-6.12;83.75
31092;BME280;67728;53.122;12.776;2023-02-28T06:18:18;102363.09;;;-6.08;83.88
31092;BME280;67728;53.122;12.776;2023-02-28T06:19:50;102362.63;;;-6.14;83.86
31092;BME280;67728;53.122;12.776;2023-02-28T06:21:22;102368.69;;;-6.12;83.77
31092;BME280;67728;53.122;12.776;2023-02-28T06:22:53;102366.56;;;-5.96;84.31
31092;BME280;67728;53.122;12.776;2023-02-28T06:24:26;102374.16;;;-5.96;84.26
31092;BME280;67728;53.122;12.776;2023-02-28T06:25:59;102378.97;;;-5.99;84.29
31092;BME280;67728;53.122;12.776;2023-02-28T06:27:31;102373.97;;;-6.09;84.02
31092;BME280;67728;53.122;12.776;2023-02-28T06:29:04;102377.25;;;-6.10;84.05
31092;BME280;67728;53.122;12.776;2023-02-28T06:30:36;102384.97;;;-6.09;83.66
31092;BME280;67728;53.122;12.776;2023-02-28T06:32:08;102377.19;;;-6.00;84.57
31092;BME280;67728;53.122;12.776;2023-02-28T06:33:40;102383.88;;;-5.79;85.07
31092;BME280;67728;53.122;12.776;2023-02-28T06:35:12;102381.66;;;-5.86;83.67
31092;BME280;67728;53.122;12.776;2023-02-28T06:36:44;102390.19;;;-5.84;84.47
31092;BME280;67728;53.122;12.776;2023-02-28T06:38:15;102383.84;;;-5.90;84.70
31092;BME280;67728;53.122;12.776;2023-02-28T06:39:48;102380.97;;;-5.95;83.69
31092;BME280;67728;53.122;12.776;2023-02-28T06:41:20;102386.38;;;-5.90;83.77
31092;BME280;67728;53.122;12.776;2023-02-28T06:42:52;102396.06;;;-5.85;84.28
31092;BME280;67728;53.122;12.776;2023-02-28T06:44:25;102397.69;;;-5.85;83.74
31092;BME280;67728;53.122;12.776;2023-02-28T06:45:57;102395.53;;;-5.69;84.29
31092;BME280;67728;53.122;12.776;2023-02-28T06:47:30;102394.63;;;-5.60;84.52
31092;BME280;67728;53.122;12.776;2023-02-28T06:49:02;102396.34;;;-5.59;84.52
31092;BME280;67728;53.122;12.776;2023-02-28T06:50:34;102404.06;;;-5.57;84.95
31092;BME280;67728;53.122;12.776;2023-02-28T06:52:05;102397.59;;;-5.54;84.37
31092;BME280;67728;53.122;12.776;2023-02-28T06:53:37;102397.25;;;-5.58;83.26
31092;BME280;67728;53.122;12.776;2023-02-28T06:55:09;102398.88;;;-5.59;84.02
31092;BME280;67728;53.122;12.776;2023-02-28T06:56:40;102408.91;;;-5.49;84.81
31092;BME280;67728;53.122;12.776;2023-02-28T06:58:12;102403.34;;;-5.45;84.38
31092;BME280;67728;53.122;12.776;2023-02-28T06:59:50;102395.72;;;-5.23;84.53
31092;BME280;67728;53.122;12.776;2023-02-28T07:01:22;102397.13;;;-5.26;84.26
31092;BME280;67728;53.122;12.776;2023-02-28T07:02:54;102403.38;;;-5.33;84.72
31092;BME280;67728;53.122;12.776;2023-02-28T07:04:26;102397.03;;;-5.28;85.04
31092;BME280;67728;53.122;12.776;2023-02-28T07:05:58;102399.88;;;-5.23;85.39
31092;BME280;67728;53.122;12.776;2023-02-28T07:07:29;102404.06;;;-5.24;84.29
31092;BME280;67728;53.122;12.776;2023-02-28T07:09:02;102405.38;;;-5.29;85.50
31092;BME280;67728;53.122;12.776;2023-02-28T07:10:36;102403.16;;;-5.24;84.60
31092;BME280;67728;53.122;12.776;2023-02-28T07:12:08;102401.00;;;-5.20;85.50
31092;BME280;67728;53.122;12.776;2023-02-28T07:13:40;102402.13;;;-5.16;85.66
31092;BME280;67728;53.122;12.776;2023-02-28T07:15:13;102407.19;;;-5.16;84.95
31092;BME280;67728;53.122;12.776;2023-02-28T07:16:45;102402.56;;;-5.10;85.59
31092;BME280;67728;53.122;12.776;2023-02-28T07:18:16;102408.50;;;-5.10;84.68
31092;BME280;67728;53.122;12.776;2023-02-28T07:19:49;102413.34;;;-5.01;85.91
31092;BME280;67728;53.122;12.776;2023-02-28T07:21:21;102403.94;;;-4.92;84.42
31092;BME280;67728;53.122;12.776;2023-02-28T07:22:53;102413.72;;;-4.85;84.35
31092;BME280;67728;53.122;12.776;2023-02-28T07:24:27;102413.16;;;-4.81;85.31
31092;BME280;67728;53.122;12.776;2023-02-28T07:25:59;102405.03;;;-4.77;85.66
31092;BME280;67728;53.122;12.776;2023-02-28T07:27:31;102403.38;;;-4.76;84.40
31092;BME280;67728;53.122;12.776;2023-02-28T07:29:03;102409.19;;;-4.77;85.40
31092;BME280;67728;53.122;12.776;2023-02-28T07:30:36;102407.78;;;-4.74;84.98
31092;BME280;67728;53.122;12.776;2023-02-28T07:32:07;102408.78;;;-4.72;84.71
31092;BME280;67728;53.122;12.776;2023-02-28T07:33:39;102406.69;;;-4.66;84.85
31092;BME280;67728;53.122;12.776;2023-02-28T07:35:11;102407.16;;;-4.60;85.55
31092;BME280;67728;53.122;12.776;2023-02-28T07:36:43;102406.34;;;-4.59;85.00
31092;BME280;67728;53.122;12.776;2023-02-28T07:38:15;102406.47;;;-4.57;85.97
31092;BME280;67728;53.122;12.776;2023-02-28T07:39:47;102405.25;;;-4.51;86.02
31092;BME280;67728;53.122;12.776;2023-02-28T07:41:21;102411.97;;;-4.40;85.06
31092;BME280;67728;53.122;12.776;2023-02-28T07:42:55;102410.84;;;-4.32;85.40
31092;BME280;67728;53.122;12.776;2023-02-28T07:44:26;102409.44;;;-4.28;85.81
31092;BME280;67728;53.122;12.776;2023-02-28T07:46:02;102409.88;;;-4.22;84.29
31092;BME280;67728;53.122;12.776;2023-02-28T07:47:35;102416.81;;;-4.19;84.08
31092;BME280;67728;53.122;12.776;2023-02-28T07:49:06;102412.72;;;-4.17;84.60
31092;BME280;67728;53.122;12.776;2023-02-28T07:50:38;102424.19;;;-4.11;84.82
31092;BME280;67728;53.122;12.776;2023-02-28T07:52:10;102413.16;;;-4.11;86.03
31092;BME280;67728;53.122;12.776;2023-02-28T07:53:41;102414.88;;;-3.99;85.62
31092;BME280;67728;53.122;12.776;2023-02-28T07:55:13;102418.63;;;-3.94;85.49
31092;BME280;67728;53.122;12.776;2023-02-28T07:56:46;102418.84;;;-3.91;85.72
31092;BME280;67728;53.122;12.776;2023-02-28T07:58:18;102419.81;;;-3.89;84.70
31092;BME280;67728;53.122;12.776;2023-02-28T07:59:50;102413.53;;;-3.82;86.29
31092;BME280;67728;53.122;12.776;2023-02-28T08:01:22;102411.53;;;-3.75;86.28
31092;BME280;67728;53.122;12.776;2023-02-28T08:02:54;102415.47;;;-3.67;85.41
31092;BME280;67728;53.122;12.776;2023-02-28T08:04:26;102410.81;;;-3.60;85.65
31092;BME280;67728;53.122;12.776;2023-02-28T08:05:57;102416.31;;;-3.54;86.13
31092;BME280;67728;53.122;12.776;2023-02-28T08:07:29;102406.47;;;-3.50;85.37
31092;BME280;67728;53.122;12.776;2023-02-28T08:09:01;102409.44;;;-3.44;85.48